< < Back
Terminal Aerodrome Forecast


Current Version              Previous Versions:   1  2  3  4  5  6  7  8  9  

Terminal Aerodrome Forecast

345
FTUS42 KTAE 010520
TAFVLD
TAF
KVLD 010520Z 0106/0206 00000KT 5SM BR BKN250
     FM010800 00000KT 1SM BR BKN004 BKN250
     FM011300 17005KT P6SM SCT040 BKN250
     FM020000 15003KT P6SM SCT250=

Latest METAR

567
SAUS70 KWBC 011300 RRT
MTRVLD
METAR KVLD 011253Z 17009KT 10SM CLR 23/21 A3004 RMK AO2 SLP178
T02330211


USA.gov is the U.S. government's official web portal to all federal, state and local government web resources and services.